• Join FlightAware (Why Join?)
  • Login
  • US Flag 
07:50PM EDT


 

Airport Tracker/Info


-or-


 

Live Flight TrackerFlight Track Log ✈ EJA935 ✈ 03-Jul-2013 ✈ KTEB - KASE

Flight Track Log - Related Links

Times and Time Zones

All times are in EDT time to prevent confusion due to time zone crossing. See the EJA935 flight status page for this flight to view local times or setup timezone preferences in your user account.

Time Position Orientation Groundspeed Altitude Reporting Facility
EDT Latitude Longitude Course Direction KTS MPH feet Rate Location/Type
03:40PM 40.8167 -74.1333 252° West 204 235 1,600  Level New York TRACON
03:41PM 40.8000 -74.2000 252° West 193 222 4,000 2,880 Climbing New York TRACON
03:42PM 40.8000 -74.2667 270° West 228 262 7,400 3,120 Climbing New York TRACON
03:43PM 40.8000 -74.3667 270° West 275 316 10,300 2,220 Climbing New York TRACON
03:44PM 40.8167 -74.4833 281° West 348 400 11,900 1,740 Climbing New York TRACON
03:45PM 40.8167 -74.6167 270° West 352 405 13,800 1,680 Climbing New York TRACON
03:46PM 40.8078 -74.7300 264° West 335 386 15,400 1,260 Climbing New York Center
03:47PM 40.8069 -74.8725 270° West 347 399 16,500 1,020 Climbing New York Center
03:48PM 40.8067 -75.0039 270° West 357 411 17,500 780 Climbing New York Center
03:49PM 40.8019 -75.1269 267° West 371 427 18,100 780 Climbing New York Center
03:50PM 40.7783 -75.2597 257° West 371 427 19,100 960 Climbing New York Center
03:51PM 40.7361 -75.3858 246° West 371 427 20,000 900 Climbing New York Center
03:52PM 40.6914 -75.5114 245° Southwest 383 441 21,000 960 Climbing New York Center
03:53PM 40.6486 -75.6397 246° West 388 447 22,000 960 Climbing New York Center
03:54PM 40.6039 -75.7678 245° Southwest 393 452 23,000 960 Climbing New York Center
03:55PM 40.5583 -75.9011 246° West 393 452 24,000 1,020 Climbing New York Center
03:56PM 40.5044 -76.0364 242° Southwest 404 465 25,100 1,020 Climbing New York Center
03:57PM 40.4519 -76.1850 245° Southwest 410 472 26,100 960 Climbing New York Center
03:59PM 40.3892 -76.3862 241° Southwest  Level FlightAware Approximate
04:00PM 40.3419 -76.6150 241° Southwest 414 476 29,100  Level New York Center
04:01PM 40.3467 -76.7678 272° West 414 476 30,100 960 Climbing New York Center
04:02PM 40.3283 -76.9217 261° West 422 486 31,100 1,080 Climbing New York Center
04:03PM 40.2894 -77.0678 251° West 427 491 32,300 1,260 Climbing New York Center
04:04PM 40.2522 -77.2167 252° West 427 491 33,600 1,260 Climbing New York Center
04:05PM 40.2439 -77.3683 266° West 418 481 34,900 1,320 Climbing New York Center
04:07PM 40.2544 -77.7319 272° West 424 488 38,000 1,200 Climbing Cleveland Center
04:08PM 40.2583 -77.8897 272° West 429 494 39,000 900 Climbing Cleveland Center
04:09PM 40.2575 -78.0311 270° West 440 506 39,900 480 Climbing Cleveland Center
04:10PM 40.2589 -78.1944 271° West 445 512 40,000 60 Climbing Cleveland Center
04:11PM 40.2625 -78.3656 272° West 458 527 40,100 300 Climbing Cleveland Center
04:12PM 40.2636 -78.5369 271° West 465 535 40,600 600 Climbing Cleveland Center
04:13PM 40.2642 -78.7031 270° West 470 541 41,300 600 Climbing Cleveland Center
04:14PM 40.2647 -78.8689 270° West 465 535 41,800 420 Climbing Cleveland Center
04:15PM 40.2650 -79.0350 270° West 460 529 42,200 420 Climbing Cleveland Center
04:16PM 40.2672 -79.1981 271° West 460 529 42,700 360 Climbing Cleveland Center
04:17PM 40.2714 -79.3750 272° West 452 520 43,000 120 Climbing Cleveland Center
04:18PM 40.2731 -79.5408 271° West 452 520 43,000  Level Cleveland Center
04:19PM 40.2722 -79.7042 270° West 459 528 43,000  Level Cleveland Center
04:20PM 40.2692 -79.8728 269° West 459 528 43,000  Level Cleveland Center
04:21PM 40.2681 -80.0472 270° West 464 534 43,000  Level Cleveland Center
04:22PM 40.2689 -80.2158 270° West 473 544 43,000  Level Cleveland Center
04:23PM 40.2672 -80.3681 269° West 473 544 43,000  Level Cleveland Center
04:24PM 40.2694 -80.5314 271° West 473 544 43,000  Level Cleveland Center
04:25PM 40.2672 -80.7000 269° West 468 539 43,000  Level Cleveland Center
04:26PM 40.2647 -80.8661 269° West 468 539 43,000  Level Cleveland Center
04:28PM 40.2597 -81.1847 269° West 465 535 43,000  Level Indianapolis Center
04:29PM 40.2578 -81.3556 269° West 465 535 43,000  Level Indianapolis Center
04:30PM 40.2547 -81.5264 269° West 465 535 43,000  Level Indianapolis Center
04:31PM 40.2519 -81.6956 269° West 462 532 43,000  Level Indianapolis Center
04:32PM 40.2489 -81.8658 269° West 463 533 43,000  Level Indianapolis Center
04:33PM 40.2453 -82.0664 269° West 467 537 43,000  Level Indianapolis Center
04:34PM 40.2417 -82.2386 268° West 467 537 43,000  Level Indianapolis Center
04:36PM 40.2386 -82.4011 269° West 467 537 43,000  Level Indianapolis Center
04:37PM 40.2339 -82.5731 268° West 470 541 43,000  Level Indianapolis Center
04:38PM 40.2294 -82.7456 268° West 472 543 43,000  Level Indianapolis Center
04:39PM 40.2244 -82.9453 268° West 469 540 43,000  Level Indianapolis Center
04:40PM 40.2192 -83.1161 268° West 468 539 43,000  Level Indianapolis Center
04:41PM 40.2142 -83.2875 268° West 470 541 43,000  Level Indianapolis Center
04:42PM 40.2094 -83.4575 268° West 468 539 43,000  Level Indianapolis Center
04:43PM 40.2042 -83.6283 268° West 471 542 43,000  Level Indianapolis Center
04:44PM 40.1983 -83.7975 267° West 467 537 43,000  Level Indianapolis Center
04:45PM 40.1900 -83.9931 267° West 463 533 43,000  Level Indianapolis Center
04:46PM 40.1839 -84.1611 267° West 461 531 43,000  Level Indianapolis Center
04:47PM 40.1767 -84.3286 267° West 461 531 43,000  Level Indianapolis Center
04:48PM 40.1700 -84.4947 267° West 457 526 43,000  Level Indianapolis Center
04:49PM 40.1619 -84.6622 266° West 459 528 43,000  Level Indianapolis Center
04:50PM 40.1553 -84.8303 267° West 459 528 43,000  Level Indianapolis Center
04:51PM 40.1475 -85.0064 267° West 462 532 43,000  Level Indianapolis Center
04:52PM 40.1392 -85.1711 266° West 457 526 43,000  Level Indianapolis Center
04:53PM 40.1303 -85.3681 267° West 455 524 43,000  Level Indianapolis Center
04:54PM 40.1222 -85.5331 266° West 457 526 43,000  Level Indianapolis Center
04:55PM 40.1178 -85.6317 267° West 457 526 43,000  Level Indianapolis Center
04:56PM 40.1075 -85.7969 265° West 460 529 43,000  Level Indianapolis Center
04:57PM 40.1006 -85.9644 267° West 466 536 43,000  Level Indianapolis Center
04:58PM 40.0903 -86.1328 265° West 470 541 43,000  Level Indianapolis Center
04:59PM 40.0794 -86.3333 266° West 469 540 43,000  Level Indianapolis Center
05:00PM 40.0697 -86.5014 266° West 471 542 43,000  Level Indianapolis Center
05:01PM 40.0592 -86.6708 265° West 474 545 43,000  Level Indianapolis Center
05:02PM 40.0422 -86.9433 265° West 474 545 43,000  Level Chicago Center
05:04PM 40.0308 -87.1119 265° West 471 542 43,000  Level Chicago Center
05:05PM 40.0211 -87.2806 266° West 470 541 43,000  Level Chicago Center
05:06PM 40.0094 -87.4508 265° West 473 544 43,000  Level Chicago Center
05:07PM 39.9953 -87.6550 265° West 472 543 43,000  Level Chicago Center
05:08PM 39.9828 -87.8250 265° West 473 544 43,000  Level Chicago Center
05:09PM 39.9717 -87.9933 265° West 471 542 43,000  Level Chicago Center
05:10PM 39.9589 -88.1750 265° West 473 544 43,000  Level Chicago Center
05:11PM 39.9458 -88.3458 264° West 473 544 43,000  Level Chicago Center
05:11PM 39.9381 -88.4481 264° West 473 544 43,000  Level Kansas City Center
05:12PM 39.9333 -88.5164 265° West 472 543 43,000  Level Chicago Center
05:13PM 39.9194 -88.6889 264° West 476 548 43,000  Level Chicago Center
05:14PM 39.9056 -88.8597 264° West 476 548 43,000  Level Chicago Center
05:15PM 39.8892 -89.0669 264° West 478 550 43,000  Level Chicago Center
05:15PM 39.8831 -89.1361 263° West 478 550 43,000  Level Kansas City Center
05:16PM 39.8683 -89.3100 264° West 480 552 43,000  Level Kansas City Center
05:17PM 39.8536 -89.4819 264° West 479 551 43,000  Level Kansas City Center
05:19PM 39.8367 -89.6883 264° West 477 549 43,000  Level Kansas City Center
05:20PM 39.8211 -89.8611 263° West 478 550 43,000  Level Kansas City Center
05:21PM 39.8053 -90.0344 263° West 480 552 43,000  Level Kansas City Center
05:22PM 39.7894 -90.2083 263° West 482 555 43,000  Level Kansas City Center
05:23PM 39.7739 -90.3828 263° West 483 556 43,000  Level Kansas City Center
05:24PM 39.7586 -90.5575 264° West 484 557 43,000  Level Kansas City Center
05:25PM 39.7411 -90.7347 263° West 484 557 43,000  Level Kansas City Center
05:26PM 39.7211 -90.9419 263° West 486 559 43,000  Level Kansas City Center
05:27PM 39.7036 -91.1156 263° West 486 559 43,000  Level Kansas City Center
05:28PM 39.6864 -91.2897 263° West 489 563 43,000  Level Kansas City Center
05:29PM 39.6656 -91.4833 262° West 491 565 43,000  Level Kansas City Center
05:30PM 39.6489 -91.6578 263° West 492 566 43,000  Level Kansas City Center
05:31PM 39.6300 -91.8322 262° West 490 564 43,000  Level Kansas City Center
05:32PM 39.6117 -92.0083 262° West 494 568 43,000  Level Kansas City Center
05:33PM 39.5961 -92.1856 264° West 495 570 43,000  Level Kansas City Center
05:34PM 39.6053 -92.3639 274° West 496 571 43,000  Level Kansas City Center
05:35PM 39.6153 -92.5772 274° West 497 572 43,000  Level Kansas City Center
05:36PM 39.6236 -92.7561 274° West 498 573 43,000  Level Kansas City Center
05:37PM 39.6319 -92.9347 274° West 498 573 43,000  Level Kansas City Center
05:38PM 39.6408 -93.1158 274° West 501 577 43,000  Level Kansas City Center
05:39PM 39.6481 -93.2969 273° West 504 580 43,000  Level Kansas City Center
05:40PM 39.6558 -93.5117 273° West 502 578 43,000  Level Kansas City Center
05:41PM 39.6653 -93.6931 274° West 503 579 43,000  Level Kansas City Center
05:42PM 39.6717 -93.8714 273° West 505 581 43,000  Level Kansas City Center
05:43PM 39.6778 -94.0733 272° West 504 580 43,000  Level Kansas City Center
05:44PM 39.6850 -94.2456 273° West 500 575 43,000  Level Kansas City Center
05:45PM 39.6922 -94.4483 273° West 504 580 43,000  Level Kansas City Center
05:46PM 39.6981 -94.6222 273° West 507 583 43,000  Level Kansas City Center
05:47PM 39.7039 -94.8242 272° West 506 582 43,000  Level Kansas City Center
05:49PM 39.7092 -94.9978 272° West 505 581 43,000  Level Kansas City Center
05:50PM 39.7147 -95.2014 272° West 509 586 43,000  Level Kansas City Center
05:51PM 39.7189 -95.3744 272° West 506 582 43,000  Level Kansas City Center
05:52PM 39.7242 -95.5786 272° West 509 586 43,000  Level Kansas City Center
05:53PM 39.7267 -95.7533 271° West 509 586 43,000  Level Kansas City Center
05:54PM 39.7308 -95.9578 272° West 508 585 43,000  Level Kansas City Center
05:55PM 39.7336 -96.1322 271° West 508 585 43,000  Level Kansas City Center
05:56PM 39.7375 -96.3378 271° West 511 588 43,000  Level Kansas City Center
05:57PM 39.7408 -96.5128 271° West 509 586 43,000  Level Kansas City Center
05:58PM 39.7442 -96.7181 271° West 509 586 43,000  Level Kansas City Center
05:59PM 39.7458 -96.9025 271° West 508 585 43,000  Level Kansas City Center
06:00PM 39.7475 -97.0853 271° West 508 585 43,000  Level Kansas City Center
06:01PM 39.7519 -97.2781 272° West 507 583 43,000  Level Kansas City Center
06:02PM 39.7536 -97.4631 271° West 509 586 43,000  Level Kansas City Center
06:03PM 39.7539 -97.6494 270° West 511 588 43,000  Level Minneapolis Center
06:04PM 39.7542 -97.8347 270° West 512 589 43,000  Level Minneapolis Center
06:05PM 39.7547 -98.0206 270° West 512 589 43,000  Level Minneapolis Center
06:06PM 39.7550 -98.2047 270° West 511 588 43,000  Level Minneapolis Center
06:07PM 39.7556 -98.3942 270° West 517 595 43,000  Level Minneapolis Center
06:08PM 39.7542 -98.5792 269° West 514 592 43,000  Level Minneapolis Center
06:09PM 39.7544 -98.8036 270° West 515 593 43,000  Level Minneapolis Center
06:10PM 39.7536 -98.9164 269° West 515 593 43,000  Level Denver Center
06:11PM 39.7525 -99.1036 270° West 516 594 43,000  Level Denver Center
06:12PM 39.7514 -99.2508 269° West 511 588 43,000  Level Denver Center
06:13PM 39.7494 -99.4736 269° West 511 588 43,000  Level Denver Center
06:14PM 39.7472 -99.6969 269° West 514 592 43,000  Level Denver Center
06:15PM 39.7447 -99.8833 269° West 515 593 43,000  Level Denver Center
06:16PM 39.7425 -100.0633 269° West 513 590 43,000  Level Denver Center
06:17PM 39.7400 -100.2119 269° West 515 593 43,000  Level Denver Center
06:18PM 39.7356 -100.4500 269° West 513 590 43,000  Level Denver Center
06:19PM 39.7319 -100.6575 269° West 514 592 43,000  Level Denver Center
06:20PM 39.7281 -100.8358 268° West 515 593 43,000  Level Denver Center
06:21PM 39.7233 -101.0161 268° West 518 596 43,000  Level Denver Center
06:22PM 39.7194 -101.2256 269° West 519 597 43,000  Level Denver Center
06:23PM 39.7117 -101.4619 268° West 515 593 43,000  Level Denver Center
06:25PM 39.7081 -101.6411 269° West 518 596 43,000  Level Denver Center
06:26PM 39.7014 -101.8514 268° West 521 600 43,000  Level Denver Center
06:27PM 39.6964 -102.0306 268° West 518 596 43,000  Level Denver Center
06:28PM 39.6883 -102.2700 268° West 519 597 43,000  Level Denver Center
06:29PM 39.6819 -102.4511 267° West 523 602 43,000  Level Denver Center
06:30PM 39.6747 -102.6631 268° West 525 604 43,000  Level Denver Center
06:31PM 39.6664 -102.8500 267° West 530 610 43,000  Level Denver Center
06:32PM 39.6586 -103.0389 267° West 526 605 43,000  Level Denver Center
06:33PM 39.6514 -103.2292 267° West 528 608 43,000  Level Denver Center
06:34PM 39.6417 -103.4569 267° West 527 606 43,000 -240 Level Denver Center
06:35PM 39.6333 -103.6461 267° West 526 605 42,600 -720 Descending Denver Center
06:36PM 39.6253 -103.8308 267° West 517 595 41,600 -1,020 Descending Denver Center
06:37PM 39.6164 -104.0100 266° West 499 574 40,600 -900 Descending Denver Center
06:38PM 39.6097 -104.1481 266° West 481 554 39,800 -1,020 Descending Denver Center
06:39PM 39.5989 -104.3628 266° West 501 577 38,600 -1,260 Descending Denver Center
06:40PM 39.5875 -104.5806 266° West 496 571 37,300 -1,140 Descending Denver Center
06:41PM 39.5753 -104.7711 265° West 523 602 36,300 -960 Descending Denver Center
06:42PM 39.5667 -104.9331 266° West 507 583 35,400 -1,260 Descending Denver Center
06:43PM 39.5553 -105.1481 266° West 497 572 33,800 -1,800 Descending Denver Center
06:44PM 39.5422 -105.3347 265° West 515 593 31,700 -2,520 Descending Denver Center
06:45PM 39.5325 -105.5133 266° West 490 564 28,700 -3,000 Descending Denver Center
06:46PM 39.5203 -105.6844 265° West 475 547 25,500 -2,280 Descending Denver Center
06:47PM 39.5106 -105.8306 265° West 400 460 24,100 -1,740 Descending Denver Center
06:48PM 39.5078 -105.9536 268° West 339 390 22,000 -1,380 Descending Denver Center
06:50PM 39.5297 -106.0847 282° West 308 354 21,000 -900 Descending Denver Center
06:51PM 39.5439 -106.1975 279° West 291 335 20,000 -480 Descending Denver Center
06:52PM 39.5269 -106.3156 259° West 328 377 20,000  Level Denver Center
06:53PM 39.5094 -106.4322 259° West 330 380 20,000  Level Denver Center
06:54PM 39.4892 -106.5661 259° West 329 379 20,000 -600 Level Denver Center
06:55PM 39.4733 -106.6692 259° West 308 354 18,800 -900 Descending Denver Center
06:56PM 39.4661 -106.7789 265° West 271 312 18,000 -780 Descending Denver Center
06:57PM 39.5150 -106.8575 309° West 254 292 17,100 -1,080 Descending Denver Center
06:58PM 39.5450 -106.9314 298° West 281 323 15,800 -660 Descending Denver Center
06:59PM 39.4803 -106.9917 216° Southwest 281 323 15,800 -420 Level Denver Center
07:00PM 39.4289 -106.9681 160° South 222 255 15,000 -1,260 Descending Denver Center
07:01PM 39.3778 -106.9422 159° South 199 229 13,200 -2,220 Descending Denver Center
07:02PM 39.3239 -106.9169 160° South 204 235 10,500 -2,340 Descending Denver Center
07:03PM 39.2736 -106.8933 160° South 201 231 8,400 -2,040 Descending Denver Center